sensor_id;sensor_type;location;lat;lon;timestamp;temperature;humidity
11762;DHT22;5938;47.098;15.474;2022-07-10T00:00:22;17.00;99.90
11762;DHT22;5938;47.098;15.474;2022-07-10T00:04:26;16.90;99.40
11762;DHT22;5938;47.098;15.474;2022-07-10T00:08:29;17.00;99.90
11762;DHT22;5938;47.098;15.474;2022-07-10T00:12:33;16.90;99.30
11762;DHT22;5938;47.098;15.474;2022-07-10T00:16:37;17.20;97.40
11762;DHT22;5938;47.098;15.474;2022-07-10T00:20:41;17.30;97.80
11762;DHT22;5938;47.098;15.474;2022-07-10T00:24:44;17.50;95.80
11762;DHT22;5938;47.098;15.474;2022-07-10T00:28:48;17.60;96.50
11762;DHT22;5938;47.098;15.474;2022-07-10T00:32:53;17.70;96.00
11762;DHT22;5938;47.098;15.474;2022-07-10T00:36:57;17.70;95.60
11762;DHT22;5938;47.098;15.474;2022-07-10T00:41:00;17.70;95.60
11762;DHT22;5938;47.098;15.474;2022-07-10T00:45:04;17.70;95.60
11762;DHT22;5938;47.098;15.474;2022-07-10T00:49:08;17.70;97.10
11762;DHT22;5938;47.098;15.474;2022-07-10T00:53:12;17.50;97.20
11762;DHT22;5938;47.098;15.474;2022-07-10T00:57:17;17.40;97.30
11762;DHT22;5938;47.098;15.474;2022-07-10T01:01:21;17.40;97.10
11762;DHT22;5938;47.098;15.474;2022-07-10T01:05:26;17.30;97.40
11762;DHT22;5938;47.098;15.474;2022-07-10T01:09:30;17.40;97.20
11762;DHT22;5938;47.098;15.474;2022-07-10T01:13:33;17.40;98.30
11762;DHT22;5938;47.098;15.474;2022-07-10T01:17:36;17.30;98.50
11762;DHT22;5938;47.098;15.474;2022-07-10T01:21:41;17.20;98.50
11762;DHT22;5938;47.098;15.474;2022-07-10T01:25:44;17.20;98.90
11762;DHT22;5938;47.098;15.474;2022-07-10T01:29:48;17.10;99.10
11762;DHT22;5938;47.098;15.474;2022-07-10T01:33:54;17.00;98.70
11762;DHT22;5938;47.098;15.474;2022-07-10T01:37:58;17.00;99.90
11762;DHT22;5938;47.098;15.474;2022-07-10T01:42:02;16.80;99.30
11762;DHT22;5938;47.098;15.474;2022-07-10T01:46:05;16.60;99.90
11762;DHT22;5938;47.098;15.474;2022-07-10T01:50:09;16.50;99.90
11762;DHT22;5938;47.098;15.474;2022-07-10T01:54:14;16.40;99.90
11762;DHT22;5938;47.098;15.474;2022-07-10T01:58:17;16.20;99.90
11762;DHT22;5938;47.098;15.474;2022-07-10T02:02:20;16.00;99.90
11762;DHT22;5938;47.098;15.474;2022-07-10T02:06:24;15.90;99.90
11762;DHT22;5938;47.098;15.474;2022-07-10T02:10:29;15.90;99.90
11762;DHT22;5938;47.098;15.474;2022-07-10T02:14:33;15.90;99.90
11762;DHT22;5938;47.098;15.474;2022-07-10T02:18:36;16.00;99.90
11762;DHT22;5938;47.098;15.474;2022-07-10T02:22:40;16.10;99.90
11762;DHT22;5938;47.098;15.474;2022-07-10T02:26:45;16.00;99.90
11762;DHT22;5938;47.098;15.474;2022-07-10T02:30:48;15.80;99.90
11762;DHT22;5938;47.098;15.474;2022-07-10T02:34:51;15.80;99.90
11762;DHT22;5938;47.098;15.474;2022-07-10T02:38:55;15.90;99.90
11762;DHT22;5938;47.098;15.474;2022-07-10T02:42:59;16.10;99.90
11762;DHT22;5938;47.098;15.474;2022-07-10T02:47:03;16.20;99.90
11762;DHT22;5938;47.098;15.474;2022-07-10T02:51:06;16.30;99.90
11762;DHT22;5938;47.098;15.474;2022-07-10T02:55:10;16.30;99.90
11762;DHT22;5938;47.098;15.474;2022-07-10T02:59:15;16.30;99.90
11762;DHT22;5938;47.098;15.474;2022-07-10T03:03:18;16.30;99.90
11762;DHT22;5938;47.098;15.474;2022-07-10T03:07:22;16.20;99.90
11762;DHT22;5938;47.098;15.474;2022-07-10T03:11:25;16.40;99.90
11762;DHT22;5938;47.098;15.474;2022-07-10T03:15:30;16.50;98.90
11762;DHT22;5938;47.098;15.474;2022-07-10T03:19:33;16.70;99.00
11762;DHT22;5938;47.098;15.474;2022-07-10T03:23:36;16.70;98.30
11762;DHT22;5938;47.098;15.474;2022-07-10T03:27:41;16.80;98.80
11762;DHT22;5938;47.098;15.474;2022-07-10T03:31:46;16.80;98.30
11762;DHT22;5938;47.098;15.474;2022-07-10T03:35:49;16.80;98.10
11762;DHT22;5938;47.098;15.474;2022-07-10T03:39:53;16.90;98.00
11762;DHT22;5938;47.098;15.474;2022-07-10T03:43:56;17.00;98.60
11762;DHT22;5938;47.098;15.474;2022-07-10T03:48:01;17.00;98.40
11762;DHT22;5938;47.098;15.474;2022-07-10T03:52:05;16.90;99.10
11762;DHT22;5938;47.098;15.474;2022-07-10T03:56:08;16.80;99.90
11762;DHT22;5938;47.098;15.474;2022-07-10T04:00:31;16.70;99.70
11762;DHT22;5938;47.098;15.474;2022-07-10T04:04:36;16.60;99.90
11762;DHT22;5938;47.098;15.474;2022-07-10T04:08:40;16.60;99.90
11762;DHT22;5938;47.098;15.474;2022-07-10T04:12:43;16.60;99.90
11762;DHT22;5938;47.098;15.474;2022-07-10T04:16:46;16.50;99.90
11762;DHT22;5938;47.098;15.474;2022-07-10T04:20:51;16.30;99.90
11762;DHT22;5938;47.098;15.474;2022-07-10T04:24:54;16.10;99.90
11762;DHT22;5938;47.098;15.474;2022-07-10T04:28:57;16.10;99.90
11762;DHT22;5938;47.098;15.474;2022-07-10T04:33:01;16.00;99.90
11762;DHT22;5938;47.098;15.474;2022-07-10T04:37:06;16.00;99.90
11762;DHT22;5938;47.098;15.474;2022-07-10T04:41:09;16.00;99.90
11762;DHT22;5938;47.098;15.474;2022-07-10T04:45:12;15.90;99.90
11762;DHT22;5938;47.098;15.474;2022-07-10T04:49:16;15.90;99.90
11762;DHT22;5938;47.098;15.474;2022-07-10T04:53:20;15.90;99.90
11762;DHT22;5938;47.098;15.474;2022-07-10T04:57:24;16.10;99.90
11762;DHT22;5938;47.098;15.474;2022-07-10T05:01:27;16.20;99.90
11762;DHT22;5938;47.098;15.474;2022-07-10T05:05:31;16.30;99.90
11762;DHT22;5938;47.098;15.474;2022-07-10T05:09:36;16.30;99.90
11762;DHT22;5938;47.098;15.474;2022-07-10T05:13:39;16.50;99.90
11762;DHT22;5938;47.098;15.474;2022-07-10T05:17:46;16.50;99.90
11762;DHT22;5938;47.098;15.474;2022-07-10T05:21:49;16.70;99.90
11762;DHT22;5938;47.098;15.474;2022-07-10T05:25:54;16.70;99.90
11762;DHT22;5938;47.098;15.474;2022-07-10T05:29:57;16.60;99.90
11762;DHT22;5938;47.098;15.474;2022-07-10T05:34:00;16.60;99.90
11762;DHT22;5938;47.098;15.474;2022-07-10T05:38:05;16.60;99.90
11762;DHT22;5938;47.098;15.474;2022-07-10T05:42:09;16.70;99.90
11762;DHT22;5938;47.098;15.474;2022-07-10T05:46:13;16.50;99.90
11762;DHT22;5938;47.098;15.474;2022-07-10T05:50:16;16.60;99.90
11762;DHT22;5938;47.098;15.474;2022-07-10T05:54:19;16.70;99.90
11762;DHT22;5938;47.098;15.474;2022-07-10T05:58:24;16.70;99.90
11762;DHT22;5938;47.098;15.474;2022-07-10T06:02:27;16.80;99.90
11762;DHT22;5938;47.098;15.474;2022-07-10T06:06:31;16.70;99.90
11762;DHT22;5938;47.098;15.474;2022-07-10T06:10:34;16.70;99.90
11762;DHT22;5938;47.098;15.474;2022-07-10T06:14:38;16.90;99.90
11762;DHT22;5938;47.098;15.474;2022-07-10T06:18:42;16.90;99.90
11762;DHT22;5938;47.098;15.474;2022-07-10T06:22:46;16.80;99.90
11762;DHT22;5938;47.098;15.474;2022-07-10T06:26:49;16.80;99.90
11762;DHT22;5938;47.098;15.474;2022-07-10T06:30:54;16.80;99.90
11762;DHT22;5938;47.098;15.474;2022-07-10T06:35:02;16.90;99.90
11762;DHT22;5938;47.098;15.474;2022-07-10T06:39:05;16.90;99.90
11762;DHT22;5938;47.098;15.474;2022-07-10T06:43:08;16.80;99.90
11762;DHT22;5938;47.098;15.474;2022-07-10T06:47:15;16.80;99.90
11762;DHT22;5938;47.098;15.474;2022-07-10T06:51:36;16.60;99.90
11762;DHT22;5938;47.098;15.474;2022-07-10T06:55:39;16.60;99.90
11762;DHT22;5938;47.098;15.474;2022-07-10T06:59:43;16.70;99.90
11762;DHT22;5938;47.098;15.474;2022-07-10T07:03:47;16.80;99.90
11762;DHT22;5938;47.098;15.474;2022-07-10T07:07:50;17.10;99.90
11762;DHT22;5938;47.098;15.474;2022-07-10T07:11:54;17.50;99.90
11762;DHT22;5938;47.098;15.474;2022-07-10T07:15:57;18.00;99.90
11762;DHT22;5938;47.098;15.474;2022-07-10T07:20:04;18.60;99.90
11762;DHT22;5938;47.098;15.474;2022-07-10T07:24:25;19.20;99.90
11762;DHT22;5938;47.098;15.474;2022-07-10T07:28:28;19.30;99.90
11762;DHT22;5938;47.098;15.474;2022-07-10T07:32:32;19.10;99.90
11762;DHT22;5938;47.098;15.474;2022-07-10T07:36:37;19.00;99.90
11762;DHT22;5938;47.098;15.474;2022-07-10T07:40:40;19.00;99.90
11762;DHT22;5938;47.098;15.474;2022-07-10T07:44:43;19.00;99.50
11762;DHT22;5938;47.098;15.474;2022-07-10T07:48:47;19.20;98.90
11762;DHT22;5938;47.098;15.474;2022-07-10T07:52:52;19.20;97.70
11762;DHT22;5938;47.098;15.474;2022-07-10T07:56:56;19.60;96.70
11762;DHT22;5938;47.098;15.474;2022-07-10T08:01:00;19.90;96.20
11762;DHT22;5938;47.098;15.474;2022-07-10T08:05:05;20.40;94.80
11762;DHT22;5938;47.098;15.474;2022-07-10T08:09:10;20.50;92.90
11762;DHT22;5938;47.098;15.474;2022-07-10T08:13:13;20.80;92.30
11762;DHT22;5938;47.098;15.474;2022-07-10T08:17:16;20.70;91.50
11762;DHT22;5938;47.098;15.474;2022-07-10T08:21:20;21.00;92.40
11762;DHT22;5938;47.098;15.474;2022-07-10T08:25:26;21.10;91.30
11762;DHT22;5938;47.098;15.474;2022-07-10T08:29:29;20.90;91.20
11762;DHT22;5938;47.098;15.474;2022-07-10T08:33:33;20.90;91.20
11762;DHT22;5938;47.098;15.474;2022-07-10T08:37:39;21.00;91.30
11762;DHT22;5938;47.098;15.474;2022-07-10T08:41:45;20.90;91.20
11762;DHT22;5938;47.098;15.474;2022-07-10T08:45:52;21.20;91.40
11762;DHT22;5938;47.098;15.474;2022-07-10T08:49:57;21.50;91.50
11762;DHT22;5938;47.098;15.474;2022-07-10T08:54:04;21.80;91.00
11762;DHT22;5938;47.098;15.474;2022-07-10T08:58:10;22.90;89.80
11762;DHT22;5938;47.098;15.474;2022-07-10T09:02:15;24.00;84.80
11762;DHT22;5938;47.098;15.474;2022-07-10T09:06:19;24.30;81.90
11762;DHT22;5938;47.098;15.474;2022-07-10T09:10:24;25.30;83.10
11762;DHT22;5938;47.098;15.474;2022-07-10T09:14:30;25.00;83.80
11762;DHT22;5938;47.098;15.474;2022-07-10T09:18:36;24.50;86.00
11762;DHT22;5938;47.098;15.474;2022-07-10T09:22:40;24.90;89.00
11762;DHT22;5938;47.098;15.474;2022-07-10T09:26:57;26.00;85.20
11762;DHT22;5938;47.098;15.474;2022-07-10T09:31:04;25.90;85.20
11762;DHT22;5938;47.098;15.474;2022-07-10T09:35:08;26.10;83.40
11762;DHT22;5938;47.098;15.474;2022-07-10T09:39:28;27.30;80.90
11762;DHT22;5938;47.098;15.474;2022-07-10T09:43:43;29.10;76.70
11762;DHT22;5938;47.098;15.474;2022-07-10T09:47:55;31.50;72.00
11762;DHT22;5938;47.098;15.474;2022-07-10T09:51:59;30.60;72.30
11762;DHT22;5938;47.098;15.474;2022-07-10T09:56:04;30.50;68.60
11762;DHT22;5938;47.098;15.474;2022-07-10T10:00:11;29.20;72.40
11762;DHT22;5938;47.098;15.474;2022-07-10T10:04:18;27.20;75.60
11762;DHT22;5938;47.098;15.474;2022-07-10T10:08:24;26.50;79.10
11762;DHT22;5938;47.098;15.474;2022-07-10T10:12:34;26.30;78.20
11762;DHT22;5938;47.098;15.474;2022-07-10T10:16:43;26.20;77.60
11762;DHT22;5938;47.098;15.474;2022-07-10T10:20:52;27.60;73.80
11762;DHT22;5938;47.098;15.474;2022-07-10T10:24:56;28.20;72.50
11762;DHT22;5938;47.098;15.474;2022-07-10T10:29:09;27.70;72.20
11762;DHT22;5938;47.098;15.474;2022-07-10T10:33:45;26.50;75.60
11762;DHT22;5938;47.098;15.474;2022-07-10T10:37:52;27.00;74.20
11762;DHT22;5938;47.098;15.474;2022-07-10T10:41:55;27.80;73.70
11762;DHT22;5938;47.098;15.474;2022-07-10T10:46:23;27.60;71.40
11762;DHT22;5938;47.098;15.474;2022-07-10T10:50:45;26.30;72.60
11762;DHT22;5938;47.098;15.474;2022-07-10T10:55:07;25.10;82.10
11762;DHT22;5938;47.098;15.474;2022-07-10T10:59:44;23.60;79.70
11762;DHT22;5938;47.098;15.474;2022-07-10T11:04:13;22.70;78.00
11762;DHT22;5938;47.098;15.474;2022-07-10T11:08:38;22.50;80.10
11762;DHT22;5938;47.098;15.474;2022-07-10T11:12:58;25.30;73.20
11762;DHT22;5938;47.098;15.474;2022-07-10T11:17:02;29.40;62.80
11762;DHT22;5938;47.098;15.474;2022-07-10T11:21:13;31.90;58.30
11762;DHT22;5938;47.098;15.474;2022-07-10T11:25:39;31.50;53.80
11762;DHT22;5938;47.098;15.474;2022-07-10T11:29:56;33.00;52.80
11762;DHT22;5938;47.098;15.474;2022-07-10T11:34:00;32.40;53.10
11762;DHT22;5938;47.098;15.474;2022-07-10T11:38:04;30.50;52.50
11762;DHT22;5938;47.098;15.474;2022-07-10T11:42:08;27.60;58.50
11762;DHT22;5938;47.098;15.474;2022-07-10T11:46:13;26.90;62.00
11762;DHT22;5938;47.098;15.474;2022-07-10T11:50:18;26.30;60.00
11762;DHT22;5938;47.098;15.474;2022-07-10T11:54:25;26.80;64.80
11762;DHT22;5938;47.098;15.474;2022-07-10T11:58:29;28.50;57.10
11762;DHT22;5938;47.098;15.474;2022-07-10T12:02:34;29.60;58.70
11762;DHT22;5938;47.098;15.474;2022-07-10T12:06:42;30.00;53.60
11762;DHT22;5938;47.098;15.474;2022-07-10T12:10:46;29.90;57.00
11762;DHT22;5938;47.098;15.474;2022-07-10T12:14:51;30.90;53.40
11762;DHT22;5938;47.098;15.474;2022-07-10T12:19:17;30.70;56.70
11762;DHT22;5938;47.098;15.474;2022-07-10T12:23:27;29.20;56.30
11762;DHT22;5938;47.098;15.474;2022-07-10T12:27:40;27.50;55.80
11762;DHT22;5938;47.098;15.474;2022-07-10T12:31:52;25.60;59.50
11762;DHT22;5938;47.098;15.474;2022-07-10T12:35:59;23.90;72.50
11762;DHT22;5938;47.098;15.474;2022-07-10T12:40:07;24.90;72.30
11762;DHT22;5938;47.098;15.474;2022-07-10T12:44:33;27.60;61.70
11762;DHT22;5938;47.098;15.474;2022-07-10T12:48:38;27.80;63.00
11762;DHT22;5938;47.098;15.474;2022-07-10T12:52:48;26.10;65.50
11762;DHT22;5938;47.098;15.474;2022-07-10T12:56:56;26.50;65.80
11762;DHT22;5938;47.098;15.474;2022-07-10T13:01:01;28.40;60.80
11762;DHT22;5938;47.098;15.474;2022-07-10T13:05:06;31.20;53.80
11762;DHT22;5938;47.098;15.474;2022-07-10T13:09:22;31.50;52.90
11762;DHT22;5938;47.098;15.474;2022-07-10T13:13:26;32.40;53.00
11762;DHT22;5938;47.098;15.474;2022-07-10T13:17:30;30.30;55.40
11762;DHT22;5938;47.098;15.474;2022-07-10T13:21:35;27.80;58.60
11762;DHT22;5938;47.098;15.474;2022-07-10T13:25:42;26.80;60.30
11762;DHT22;5938;47.098;15.474;2022-07-10T13:29:46;26.50;65.80
11762;DHT22;5938;47.098;15.474;2022-07-10T13:33:50;25.50;65.00
11762;DHT22;5938;47.098;15.474;2022-07-10T13:37:54;25.10;65.60
11762;DHT22;5938;47.098;15.474;2022-07-10T13:41:59;24.70;66.10
11762;DHT22;5938;47.098;15.474;2022-07-10T13:46:02;24.60;68.00
11762;DHT22;5938;47.098;15.474;2022-07-10T13:50:07;24.20;67.40
11762;DHT22;5938;47.098;15.474;2022-07-10T13:54:11;23.20;71.00
11762;DHT22;5938;47.098;15.474;2022-07-10T13:58:17;22.80;70.70
11762;DHT22;5938;47.098;15.474;2022-07-10T14:02:21;23.60;69.30
11762;DHT22;5938;47.098;15.474;2022-07-10T14:06:25;24.70;67.50
11762;DHT22;5938;47.098;15.474;2022-07-10T14:10:29;25.10;64.70
11762;DHT22;5938;47.098;15.474;2022-07-10T14:14:34;25.90;67.30
11762;DHT22;5938;47.098;15.474;2022-07-10T14:18:38;28.30;58.50
11762;DHT22;5938;47.098;15.474;2022-07-10T14:22:44;27.90;57.90
11762;DHT22;5938;47.098;15.474;2022-07-10T14:26:52;25.90;63.80
11762;DHT22;5938;47.098;15.474;2022-07-10T14:31:04;25.20;64.80
11762;DHT22;5938;47.098;15.474;2022-07-10T14:35:08;25.00;64.70
11762;DHT22;5938;47.098;15.474;2022-07-10T14:39:12;24.30;65.20
11762;DHT22;5938;47.098;15.474;2022-07-10T14:43:17;23.20;66.80
11762;DHT22;5938;47.098;15.474;2022-07-10T14:47:40;23.30;68.60
11762;DHT22;5938;47.098;15.474;2022-07-10T14:51:43;24.80;67.10
11762;DHT22;5938;47.098;15.474;2022-07-10T14:55:48;25.60;65.10
11762;DHT22;5938;47.098;15.474;2022-07-10T14:59:53;27.70;61.80
11762;DHT22;5938;47.098;15.474;2022-07-10T15:04:01;30.80;55.40
11762;DHT22;5938;47.098;15.474;2022-07-10T15:08:04;31.40;52.40
11762;DHT22;5938;47.098;15.474;2022-07-10T15:12:09;30.30;52.30
11762;DHT22;5938;47.098;15.474;2022-07-10T15:16:13;30.60;52.90
11762;DHT22;5938;47.098;15.474;2022-07-10T15:20:18;29.50;51.70
11762;DHT22;5938;47.098;15.474;2022-07-10T15:24:22;29.20;56.40
11762;DHT22;5938;47.098;15.474;2022-07-10T15:28:25;29.50;52.20
11762;DHT22;5938;47.098;15.474;2022-07-10T15:32:29;30.30;51.60
11762;DHT22;5938;47.098;15.474;2022-07-10T15:36:35;29.90;52.40
11762;DHT22;5938;47.098;15.474;2022-07-10T15:40:38;29.30;51.40
11762;DHT22;5938;47.098;15.474;2022-07-10T15:44:43;29.70;53.90
11762;DHT22;5938;47.098;15.474;2022-07-10T15:48:48;29.20;52.30
11762;DHT22;5938;47.098;15.474;2022-07-10T15:52:54;29.60;53.20
11762;DHT22;5938;47.098;15.474;2022-07-10T15:56:57;28.80;53.90
11762;DHT22;5938;47.098;15.474;2022-07-10T16:01:01;28.60;54.60
11762;DHT22;5938;47.098;15.474;2022-07-10T16:05:06;29.40;53.20
11762;DHT22;5938;47.098;15.474;2022-07-10T16:09:14;29.00;55.90
11762;DHT22;5938;47.098;15.474;2022-07-10T16:13:19;29.60;54.20
11762;DHT22;5938;47.098;15.474;2022-07-10T16:17:23;28.90;52.30
11762;DHT22;5938;47.098;15.474;2022-07-10T16:21:28;26.30;57.20
11762;DHT22;5938;47.098;15.474;2022-07-10T16:25:33;24.10;62.50
11762;DHT22;5938;47.098;15.474;2022-07-10T16:29:55;23.30;63.10
11762;DHT22;5938;47.098;15.474;2022-07-10T16:33:59;22.80;63.60
11762;DHT22;5938;47.098;15.474;2022-07-10T16:38:06;22.60;65.60
11762;DHT22;5938;47.098;15.474;2022-07-10T16:42:12;22.60;65.00
11762;DHT22;5938;47.098;15.474;2022-07-10T16:46:17;23.10;66.60
11762;DHT22;5938;47.098;15.474;2022-07-10T16:50:20;23.40;65.50
11762;DHT22;5938;47.098;15.474;2022-07-10T16:54:24;23.00;64.20
11762;DHT22;5938;47.098;15.474;2022-07-10T16:58:30;22.90;64.40
11762;DHT22;5938;47.098;15.474;2022-07-10T17:02:34;22.70;64.10
11762;DHT22;5938;47.098;15.474;2022-07-10T17:06:38;23.50;63.30
11762;DHT22;5938;47.098;15.474;2022-07-10T17:10:41;24.90;61.20
11762;DHT22;5938;47.098;15.474;2022-07-10T17:14:47;25.80;59.60
11762;DHT22;5938;47.098;15.474;2022-07-10T17:18:51;25.10;60.40
11762;DHT22;5938;47.098;15.474;2022-07-10T17:22:57;24.50;61.60
11762;DHT22;5938;47.098;15.474;2022-07-10T17:27:01;23.20;64.50
11762;DHT22;5938;47.098;15.474;2022-07-10T17:31:06;22.20;66.10
11762;DHT22;5938;47.098;15.474;2022-07-10T17:35:11;21.50;69.50
11762;DHT22;5938;47.098;15.474;2022-07-10T17:39:14;21.20;67.90
11762;DHT22;5938;47.098;15.474;2022-07-10T17:43:18;20.90;71.90
11762;DHT22;5938;47.098;15.474;2022-07-10T17:47:23;20.80;71.10
11762;DHT22;5938;47.098;15.474;2022-07-10T17:51:27;20.70;70.90
11762;DHT22;5938;47.098;15.474;2022-07-10T17:55:31;20.50;70.60
11762;DHT22;5938;47.098;15.474;2022-07-10T17:59:35;20.40;70.60
11762;DHT22;5938;47.098;15.474;2022-07-10T18:03:40;20.50;71.40
11762;DHT22;5938;47.098;15.474;2022-07-10T18:07:45;20.50;73.40
11762;DHT22;5938;47.098;15.474;2022-07-10T18:11:51;20.50;71.50
11762;DHT22;5938;47.098;15.474;2022-07-10T18:15:55;20.40;72.40
11762;DHT22;5938;47.098;15.474;2022-07-10T18:20:14;20.20;72.60
11762;DHT22;5938;47.098;15.474;2022-07-10T18:24:19;19.90;70.90
11762;DHT22;5938;47.098;15.474;2022-07-10T18:28:23;19.80;71.40
11762;DHT22;5938;47.098;15.474;2022-07-10T18:32:29;19.60;72.40
11762;DHT22;5938;47.098;15.474;2022-07-10T18:36:54;19.40;74.50
11762;DHT22;5938;47.098;15.474;2022-07-10T18:40:58;19.30;71.30
11762;DHT22;5938;47.098;15.474;2022-07-10T18:45:03;19.30;71.60
11762;DHT22;5938;47.098;15.474;2022-07-10T18:49:07;19.30;72.90
11762;DHT22;5938;47.098;15.474;2022-07-10T18:53:13;19.00;75.40
11762;DHT22;5938;47.098;15.474;2022-07-10T18:57:17;18.80;75.20
11762;DHT22;5938;47.098;15.474;2022-07-10T19:01:21;18.50;77.70
11762;DHT22;5938;47.098;15.474;2022-07-10T19:05:27;18.20;78.50
11762;DHT22;5938;47.098;15.474;2022-07-10T19:09:34;18.30;75.20
11762;DHT22;5938;47.098;15.474;2022-07-10T19:13:41;18.30;74.70
11762;DHT22;5938;47.098;15.474;2022-07-10T19:17:45;18.10;76.20
11762;DHT22;5938;47.098;15.474;2022-07-10T19:21:49;18.00;76.20
11762;DHT22;5938;47.098;15.474;2022-07-10T19:25:57;17.90;74.70
11762;DHT22;5938;47.098;15.474;2022-07-10T19:30:01;17.80;76.90
11762;DHT22;5938;47.098;15.474;2022-07-10T19:34:05;17.60;79.60
11762;DHT22;5938;47.098;15.474;2022-07-10T19:38:08;17.30;79.10
11762;DHT22;5938;47.098;15.474;2022-07-10T19:42:16;17.40;79.10
11762;DHT22;5938;47.098;15.474;2022-07-10T19:46:19;17.40;79.10
11762;DHT22;5938;47.098;15.474;2022-07-10T19:50:23;17.20;81.30
11762;DHT22;5938;47.098;15.474;2022-07-10T19:54:27;17.00;81.10
11762;DHT22;5938;47.098;15.474;2022-07-10T19:58:33;16.80;82.20
11762;DHT22;5938;47.098;15.474;2022-07-10T20:02:43;16.60;85.50
11762;DHT22;5938;47.098;15.474;2022-07-10T20:06:47;16.40;86.60
11762;DHT22;5938;47.098;15.474;2022-07-10T20:10:51;16.20;87.60
11762;DHT22;5938;47.098;15.474;2022-07-10T20:14:56;15.90;88.30
11762;DHT22;5938;47.098;15.474;2022-07-10T20:19:02;15.80;90.00
11762;DHT22;5938;47.098;15.474;2022-07-10T20:23:06;15.60;90.70
11762;DHT22;5938;47.098;15.474;2022-07-10T20:27:12;15.40;90.80
11762;DHT22;5938;47.098;15.474;2022-07-10T20:31:19;15.20;92.20
11762;DHT22;5938;47.098;15.474;2022-07-10T20:35:23;15.00;93.00
11762;DHT22;5938;47.098;15.474;2022-07-10T20:39:27;15.00;93.20
11762;DHT22;5938;47.098;15.474;2022-07-10T20:43:32;14.80;93.10
11762;DHT22;5938;47.098;15.474;2022-07-10T20:47:37;14.80;93.90
11762;DHT22;5938;47.098;15.474;2022-07-10T20:51:43;14.70;94.00
11762;DHT22;5938;47.098;15.474;2022-07-10T20:55:48;14.60;94.80
11762;DHT22;5938;47.098;15.474;2022-07-10T20:59:52;14.60;94.50
11762;DHT22;5938;47.098;15.474;2022-07-10T21:03:57;14.50;95.20
11762;DHT22;5938;47.098;15.474;2022-07-10T21:08:02;14.40;95.80
11762;DHT22;5938;47.098;15.474;2022-07-10T21:12:06;14.40;96.80
11762;DHT22;5938;47.098;15.474;2022-07-10T21:16:10;14.30;97.20
11762;DHT22;5938;47.098;15.474;2022-07-10T21:20:16;14.20;97.20
11762;DHT22;5938;47.098;15.474;2022-07-10T21:24:20;14.00;97.10
11762;DHT22;5938;47.098;15.474;2022-07-10T21:28:24;14.00;97.60
11762;DHT22;5938;47.098;15.474;2022-07-10T21:32:28;13.80;97.60
11762;DHT22;5938;47.098;15.474;2022-07-10T21:36:33;13.60;98.00
11762;DHT22;5938;47.098;15.474;2022-07-10T21:40:37;13.50;97.90
11762;DHT22;5938;47.098;15.474;2022-07-10T21:44:42;13.30;98.20
11762;DHT22;5938;47.098;15.474;2022-07-10T21:48:46;13.30;99.20
11762;DHT22;5938;47.098;15.474;2022-07-10T21:52:51;13.20;99.50
11762;DHT22;5938;47.098;15.474;2022-07-10T21:56:55;13.00;99.90
11762;DHT22;5938;47.098;15.474;2022-07-10T22:00:58;13.00;99.90
11762;DHT22;5938;47.098;15.474;2022-07-10T22:05:04;12.90;99.90
11762;DHT22;5938;47.098;15.474;2022-07-10T22:09:09;12.80;99.90
11762;DHT22;5938;47.098;15.474;2022-07-10T22:13:13;12.80;99.90
11762;DHT22;5938;47.098;15.474;2022-07-10T22:17:16;12.70;99.90
11762;DHT22;5938;47.098;15.474;2022-07-10T22:21:19;12.60;99.90
11762;DHT22;5938;47.098;15.474;2022-07-10T22:25:24;12.60;99.90
11762;DHT22;5938;47.098;15.474;2022-07-10T22:29:30;12.50;99.90
11762;DHT22;5938;47.098;15.474;2022-07-10T22:33:33;12.40;99.90
11762;DHT22;5938;47.098;15.474;2022-07-10T22:37:36;12.30;99.90
11762;DHT22;5938;47.098;15.474;2022-07-10T22:41:41;12.30;99.90
11762;DHT22;5938;47.098;15.474;2022-07-10T22:45:45;12.30;99.90
11762;DHT22;5938;47.098;15.474;2022-07-10T22:49:48;12.30;99.90
11762;DHT22;5938;47.098;15.474;2022-07-10T22:53:51;12.20;99.90
11762;DHT22;5938;47.098;15.474;2022-07-10T22:57:56;12.10;99.90
11762;DHT22;5938;47.098;15.474;2022-07-10T23:01:59;12.00;99.90
11762;DHT22;5938;47.098;15.474;2022-07-10T23:06:03;11.90;99.90
11762;DHT22;5938;47.098;15.474;2022-07-10T23:10:07;11.90;99.90
11762;DHT22;5938;47.098;15.474;2022-07-10T23:14:12;11.90;99.90
11762;DHT22;5938;47.098;15.474;2022-07-10T23:18:15;11.80;99.90
11762;DHT22;5938;47.098;15.474;2022-07-10T23:22:18;11.80;99.90
11762;DHT22;5938;47.098;15.474;2022-07-10T23:26:21;11.70;99.90
11762;DHT22;5938;47.098;15.474;2022-07-10T23:30:26;11.80;99.90
11762;DHT22;5938;47.098;15.474;2022-07-10T23:34:29;11.70;99.90
11762;DHT22;5938;47.098;15.474;2022-07-10T23:38:33;11.80;99.90
11762;DHT22;5938;47.098;15.474;2022-07-10T23:42:36;11.70;99.90
11762;DHT22;5938;47.098;15.474;2022-07-10T23:46:41;11.70;99.90
11762;DHT22;5938;47.098;15.474;2022-07-10T23:50:44;11.80;99.90
11762;DHT22;5938;47.098;15.474;2022-07-10T23:54:48;11.80;99.90
11762;DHT22;5938;47.098;15.474;2022-07-10T23:58:51;11.80;99.90
